createdAt,value
2022-08-10T00:04:02.071Z,0.90
2022-08-10T00:09:07.445Z,0.90
2022-08-10T00:14:12.418Z,0.82
2022-08-10T00:19:19.946Z,1.00
2022-08-10T00:24:24.870Z,1.00
2022-08-10T00:29:29.767Z,0.90
2022-08-10T00:34:37.589Z,0.98
2022-08-10T00:39:42.581Z,1.10
2022-08-10T00:44:51.090Z,0.82
2022-08-10T00:49:58.739Z,0.90
2022-08-10T00:55:05.214Z,0.98
2022-08-10T01:00:11.904Z,1.00
2022-08-10T01:05:20.695Z,0.98
2022-08-10T01:10:36.907Z,1.00
2022-08-10T01:15:55.722Z,0.90
2022-08-10T01:21:28.356Z,1.10
2022-08-10T01:27:10.067Z,1.20
2022-08-10T01:37:27.232Z,1.00
2022-08-10T01:42:35.895Z,1.20
2022-08-10T01:47:57.976Z,1.20
2022-08-10T01:53:07.917Z,1.00
2022-08-10T01:58:14.588Z,1.17
2022-08-10T02:03:25.455Z,1.33
2022-08-10T02:08:33.888Z,1.00
2022-08-10T02:19:27.954Z,1.10
2022-08-10T02:24:33.965Z,1.20
2022-08-10T02:29:42.275Z,1.10
2022-08-10T02:34:51.973Z,1.30
2022-08-10T02:39:57.219Z,1.27
2022-08-10T02:45:22.200Z,1.20
2022-08-10T02:50:38.630Z,1.10
2022-08-10T02:55:49.343Z,1.15
2022-08-10T03:00:58.551Z,1.25
2022-08-10T03:06:12.219Z,1.13
2022-08-10T03:12:35.081Z,1.30
2022-08-10T03:16:57.393Z,1.08
2022-08-10T03:22:05.958Z,1.40
2022-08-10T03:27:12.028Z,1.30
2022-08-10T03:32:17.364Z,1.30
2022-08-10T03:37:24.922Z,1.05
2022-08-10T03:42:31.436Z,1.17
2022-08-10T03:47:39.651Z,1.45
2022-08-10T03:52:48.178Z,1.17
2022-08-10T03:57:53.897Z,1.20
2022-08-10T04:03:00.828Z,1.30
2022-08-10T04:08:08.777Z,1.30
2022-08-10T04:13:13.660Z,1.40
2022-08-10T04:18:18.643Z,1.20
2022-08-10T04:23:28.334Z,1.20
2022-08-10T04:28:34.160Z,1.20
2022-08-10T04:33:44.074Z,1.10
2022-08-10T04:38:52.806Z,1.30
2022-08-10T04:43:57.885Z,1.33
2022-08-10T04:49:02.792Z,1.30
2022-08-10T04:54:15.820Z,1.40
2022-08-10T04:59:20.806Z,1.30
2022-08-10T05:04:34.790Z,1.30
2022-08-10T05:10:02.275Z,1.30
2022-08-10T05:15:13.673Z,1.20
2022-08-10T05:20:19.275Z,1.50
2022-08-10T05:25:27.794Z,1.30
2022-08-10T05:30:34.369Z,1.58
2022-08-10T05:35:56.602Z,1.30
2022-08-10T05:41:08.709Z,1.30
2022-08-10T05:46:16.948Z,1.50
2022-08-10T05:51:30.273Z,1.40
2022-08-10T05:56:53.185Z,1.50
2022-08-10T06:02:30.934Z,1.73
2022-08-10T06:07:35.361Z,1.33
2022-08-10T06:12:55.280Z,1.52
2022-08-10T06:18:03.022Z,1.40
2022-08-10T06:23:09.837Z,1.33
2022-08-10T06:28:19.746Z,1.40
2022-08-10T06:33:26.925Z,1.63
2022-08-10T06:38:35.289Z,1.50
2022-08-10T06:43:48.398Z,1.40
2022-08-10T06:48:55.990Z,1.13
2022-08-10T06:54:05.135Z,1.30
2022-08-10T06:59:21.665Z,1.23
2022-08-10T07:04:32.609Z,1.10
2022-08-10T07:09:40.479Z,1.13
2022-08-10T07:14:50.370Z,1.10
2022-08-10T07:20:00.861Z,1.27
2022-08-10T07:25:08.748Z,1.30
2022-08-10T07:30:17.497Z,1.13
2022-08-10T07:35:24.624Z,0.98
2022-08-10T07:40:29.928Z,1.17
2022-08-10T07:45:40.562Z,1.10
2022-08-10T07:50:46.546Z,1.10
2022-08-10T07:56:05.593Z,1.30
2022-08-10T08:01:22.941Z,1.17
2022-08-10T08:06:28.882Z,1.23
2022-08-10T08:11:36.771Z,1.20
2022-08-10T08:16:49.202Z,1.10
2022-08-10T08:24:07.958Z,1.23
2022-08-10T08:27:21.195Z,1.40
2022-08-10T08:32:30.444Z,1.23
2022-08-10T08:38:32.297Z,1.27
2022-08-10T08:43:31.927Z,1.30
2022-08-10T08:48:57.795Z,1.33
2022-08-10T08:54:18.182Z,1.60
2022-08-10T08:59:38.545Z,1.40
2022-08-10T09:05:03.907Z,1.20
2022-08-10T09:10:22.035Z,1.20
2022-08-10T09:15:40.427Z,1.15
2022-08-10T09:20:52.803Z,1.17
2022-08-10T09:26:04.741Z,1.10
2022-08-10T09:31:21.976Z,0.82
2022-08-10T09:36:40.000Z,1.00
2022-08-10T09:41:57.608Z,0.90
2022-08-10T09:47:17.113Z,1.02
2022-08-10T09:52:33.102Z,1.20
2022-08-10T09:57:46.516Z,0.90
2022-08-10T10:03:04.873Z,0.90
2022-08-10T10:08:26.486Z,1.20
2022-08-10T10:14:01.608Z,1.10
2022-08-10T10:19:18.265Z,0.90
2022-08-10T10:24:39.458Z,0.77
2022-08-10T10:29:56.748Z,1.02
2022-08-10T10:35:08.768Z,1.08
2022-08-10T10:40:18.675Z,0.98
2022-08-10T10:45:31.766Z,1.00
2022-08-10T10:50:44.217Z,0.88
2022-08-10T10:56:14.574Z,0.80
2022-08-10T11:01:31.606Z,1.10
2022-08-10T11:06:51.485Z,0.95
2022-08-10T11:12:04.993Z,0.82
2022-08-10T11:17:17.554Z,0.93
2022-08-10T11:22:30.324Z,0.80
2022-08-10T11:27:50.820Z,1.00
2022-08-10T11:33:10.544Z,1.00
2022-08-10T11:38:34.435Z,0.88
2022-08-10T11:43:54.832Z,1.00
2022-08-10T11:49:06.828Z,0.82
2022-08-10T11:54:17.458Z,0.80
2022-08-10T11:59:40.101Z,0.73
2022-08-10T12:04:52.015Z,0.80
2022-08-10T12:10:09.417Z,0.82
2022-08-10T12:15:26.162Z,0.80
2022-08-10T12:20:35.968Z,0.90
2022-08-10T12:25:56.841Z,0.70
2022-08-10T12:31:09.407Z,0.73
2022-08-10T12:36:22.892Z,0.80
2022-08-10T12:41:44.377Z,0.90
2022-08-10T12:47:01.571Z,0.60
2022-08-10T12:52:22.409Z,0.85
2022-08-10T12:57:29.424Z,0.80
2022-08-10T13:02:45.235Z,0.80
2022-08-10T13:08:26.556Z,0.70
2022-08-10T13:13:36.571Z,0.73
2022-08-10T13:18:48.981Z,0.70
2022-08-10T13:24:04.469Z,0.70
2022-08-10T13:29:24.402Z,0.65
2022-08-10T13:34:42.333Z,0.60
2022-08-10T13:39:59.108Z,0.70
2022-08-10T13:45:12.013Z,0.65
2022-08-10T13:50:33.387Z,0.68
2022-08-10T13:55:48.697Z,0.70
2022-08-10T14:01:02.491Z,0.60
2022-08-10T14:06:15.545Z,0.50
2022-08-10T14:11:24.111Z,0.63
2022-08-10T14:16:30.933Z,0.60
2022-08-10T14:21:43.253Z,0.60
2022-08-10T14:26:50.154Z,0.70
2022-08-10T14:32:01.892Z,0.70
2022-08-10T14:37:12.921Z,0.70
2022-08-10T14:48:02.086Z,0.73
2022-08-10T14:53:10.273Z,0.70
2022-08-10T14:58:23.070Z,0.70
2022-08-10T15:03:58.915Z,0.50
2022-08-10T15:09:05.524Z,0.60
2022-08-10T15:14:41.163Z,0.60
2022-08-10T15:20:02.380Z,0.70
2022-08-10T15:25:19.353Z,0.70
2022-08-10T15:30:34.974Z,0.70
2022-08-10T15:35:54.580Z,0.73
2022-08-10T15:41:07.838Z,0.50
2022-08-10T15:46:22.068Z,0.70
2022-08-10T15:51:53.425Z,0.60
2022-08-10T15:57:05.638Z,0.50
2022-08-10T16:02:17.533Z,0.60
2022-08-10T16:07:45.885Z,0.50
2022-08-10T16:13:01.743Z,0.73
2022-08-10T16:18:11.531Z,0.70
2022-08-10T16:23:25.998Z,0.75
2022-08-10T16:28:38.783Z,0.80
2022-08-10T16:33:53.801Z,0.63
2022-08-10T16:39:01.395Z,0.60
2022-08-10T16:44:13.284Z,0.60
2022-08-10T16:49:20.932Z,0.85
2022-08-10T16:54:28.205Z,0.73
2022-08-10T16:59:39.479Z,0.63
2022-08-10T17:04:47.329Z,0.60
2022-08-10T17:09:54.083Z,0.63
2022-08-10T17:15:09.978Z,0.65
2022-08-10T17:20:31.726Z,0.60
2022-08-10T17:25:45.910Z,0.60
2022-08-10T17:31:03.443Z,0.73
2022-08-10T17:36:09.680Z,0.50
2022-08-10T17:41:16.551Z,0.73
2022-08-10T17:46:27.955Z,0.80
2022-08-10T17:51:34.324Z,0.90
2022-08-10T17:56:40.285Z,0.70
2022-08-10T18:01:58.822Z,0.63
2022-08-10T18:07:08.419Z,0.68
2022-08-10T18:12:17.829Z,0.80
2022-08-10T18:17:38.486Z,0.70
2022-08-10T18:22:48.124Z,0.75
2022-08-10T18:28:03.833Z,0.60
2022-08-10T18:33:17.582Z,0.70
2022-08-10T18:38:24.741Z,0.70
2022-08-10T18:44:05.868Z,0.70
2022-08-10T18:49:09.584Z,0.80
2022-08-10T18:54:34.511Z,0.90
2022-08-10T19:00:09.381Z,0.80
2022-08-10T19:05:32.120Z,0.70
2022-08-10T19:10:43.832Z,0.70
2022-08-10T19:15:59.334Z,0.70
2022-08-10T19:21:16.141Z,0.60
2022-08-10T19:26:41.942Z,0.80
2022-08-10T19:31:57.063Z,0.80
2022-08-10T19:37:15.293Z,0.90
2022-08-10T19:42:31.480Z,0.68
2022-08-10T19:47:52.062Z,0.80
2022-08-10T19:53:09.539Z,0.68
2022-08-10T19:58:22.613Z,0.70
2022-08-10T20:03:35.199Z,0.68
2022-08-10T20:08:50.139Z,1.00
2022-08-10T20:14:03.287Z,0.75
2022-08-10T20:19:14.415Z,0.90
2022-08-10T20:24:31.880Z,0.90
2022-08-10T20:29:57.636Z,0.90
2022-08-10T20:35:10.834Z,0.90
2022-08-10T20:40:26.343Z,0.88
2022-08-10T20:45:52.109Z,0.90
2022-08-10T20:51:05.337Z,0.90
2022-08-10T20:56:20.221Z,0.80
2022-08-10T21:02:05.945Z,0.80
2022-08-10T21:07:28.385Z,0.90
2022-08-10T21:12:58.682Z,0.95
2022-08-10T21:18:28.109Z,0.90
2022-08-10T21:23:40.078Z,1.00
2022-08-10T21:29:11.430Z,0.77
2022-08-10T21:34:54.464Z,0.90
2022-08-10T21:46:20.667Z,0.90
2022-08-10T21:52:02.253Z,0.80
2022-08-10T21:57:28.126Z,1.00
2022-08-10T22:03:05.964Z,0.70
2022-08-10T22:08:26.785Z,0.82
2022-08-10T22:13:46.691Z,0.85
2022-08-10T22:19:16.562Z,0.75
2022-08-10T22:24:42.292Z,0.80
2022-08-10T22:30:06.632Z,0.80
2022-08-10T22:31:25.014Z,0.73
2022-08-10T22:35:55.066Z,0.80
2022-08-10T22:41:24.163Z,0.98
2022-08-10T22:46:46.203Z,0.80
2022-08-10T22:51:59.435Z,0.90
2022-08-10T22:57:18.438Z,0.98
2022-08-10T23:02:33.810Z,0.90
2022-08-10T23:07:50.431Z,0.90
2022-08-10T23:13:00.925Z,0.90
2022-08-10T23:18:22.361Z,0.80
2022-08-10T23:23:31.987Z,1.05
2022-08-10T23:29:03.273Z,0.98
2022-08-10T23:34:05.947Z,1.10
2022-08-10T23:39:26.163Z,0.90
2022-08-10T23:44:39.042Z,0.93
2022-08-10T23:49:45.174Z,0.90
2022-08-10T23:55:00.233Z,1.00
